Time;durP1;ratioP1;P1;durP2;ratioP2;P2;SDS_P1;SDS_P2;PMS_P1;PMS_P2;Temp;Humidity;BMP_temperature;BMP_pressure;BME280_temperature;BME280_humidity;BME280_pressure;Samples;Min_cycle;Max_cycle;Signal;HPM_P1;HPM_P2
2021/01/06 00:01:13;;;;;;;8.10;7.30;;;;;;;-0.03;99.46;97481.44;4983309;28;20213;-67
2021/01/06 00:03:41;;;;;;;7.10;6.50;;;;;;;-0.12;99.58;97473.44;4980669;28;20229;-67
2021/01/06 00:06:11;;;;;;;9.00;8.13;;;;;;;-0.16;99.74;97475.44;4981275;28;20226;-68
2021/01/06 00:08:41;;;;;;;7.73;7.03;;;;;;;-0.14;99.35;97468.34;4984295;28;20202;-68
2021/01/06 00:11:08;;;;;;;7.27;6.57;;;;;;;-0.01;99.30;97468.28;4980800;28;20448;-68
2021/01/06 00:13:35;;;;;;;7.63;6.93;;;;;;;0.01;98.83;97470.78;4984244;28;20567;-68
2021/01/06 00:16:04;;;;;;;7.77;7.03;;;;;;;-0.13;99.29;97476.97;4979152;28;20232;-68
2021/01/06 00:18:31;;;;;;;8.33;7.47;;;;;;;-0.07;98.59;97469.56;4986245;28;20213;-68
2021/01/06 00:20:58;;;;;;;9.67;8.70;;;;;;;-0.08;98.29;97457.50;4987877;28;20653;-69
2021/01/06 00:23:25;;;;;;;6.93;6.30;;;;;;;-0.21;98.90;97459.28;4983044;28;20483;-68
2021/01/06 00:25:52;;;;;;;7.60;6.90;;;;;;;-0.13;98.95;97459.59;4982375;28;20830;-68
2021/01/06 00:28:20;;;;;;;7.73;7.13;;;;;;;-0.09;98.29;97454.97;4987008;28;20210;-68
2021/01/06 00:30:50;;;;;;;8.23;7.30;;;;;;;-0.15;98.69;97446.66;4977986;28;20209;-68
2021/01/06 00:33:22;;;;;;;7.67;7.00;;;;;;;-0.14;97.60;97447.50;4993191;28;20260;-67
2021/01/06 00:35:50;;;;;;;6.97;6.37;;;;;;;-0.19;97.48;97455.66;4984262;28;20714;-68
2021/01/06 00:38:22;;;;;;;6.33;5.83;;;;;;;-0.27;97.83;97457.97;4982586;28;20602;-69
2021/01/06 00:40:49;;;;;;;7.97;6.97;;;;;;;-0.23;97.66;97461.16;4978344;28;20232;-69
2021/01/06 00:43:17;;;;;;;7.10;6.50;;;;;;;-0.23;97.56;97458.56;4963402;28;20480;-68
2021/01/06 00:45:44;;;;;;;7.30;6.70;;;;;;;-0.30;97.92;97464.22;4980161;28;20833;-68
2021/01/06 00:48:12;;;;;;;7.17;6.47;;;;;;;-0.25;98.20;97465.66;4991088;28;20548;-70
2021/01/06 00:50:40;;;;;;;6.73;6.13;;;;;;;-0.27;97.28;97462.34;4978900;28;20213;-68
2021/01/06 00:53:09;;;;;;;6.33;5.83;;;;;;;-0.15;97.02;97453.66;4982583;28;20238;-68
2021/01/06 00:55:36;;;;;;;7.43;6.83;;;;;;;-0.18;96.92;97464.31;4981725;28;20459;-68
2021/01/06 00:58:03;;;;;;;6.53;5.93;;;;;;;-0.20;97.40;97464.41;4982547;28;20570;-69
2021/01/06 01:00:30;;;;;;;5.70;5.10;;;;;;;-0.20;97.44;97455.75;4992138;28;20687;-69
2021/01/06 01:02:58;;;;;;;6.13;5.63;;;;;;;-0.30;96.88;97459.00;4981723;28;20477;-68
2021/01/06 01:05:26;;;;;;;6.40;5.90;;;;;;;-0.26;96.80;97453.59;4985193;28;20209;-69
2021/01/06 01:07:55;;;;;;;8.37;6.10;;;;;;;-0.31;97.59;97461.75;4980433;28;20230;-68
2021/01/06 01:10:29;;;;;;;5.63;5.20;;;;;;;-0.23;97.13;97459.41;4981835;28;20455;-69
2021/01/06 01:12:56;;;;;;;6.13;5.63;;;;;;;-0.26;97.87;97459.63;4979788;28;20327;-68
2021/01/06 01:15:26;;;;;;;6.40;5.90;;;;;;;-0.22;97.08;97463.69;4979610;28;20213;-68
2021/01/06 01:17:53;;;;;;;6.43;5.37;;;;;;;-0.18;96.97;97467.72;4981455;28;20209;-67
2021/01/06 01:20:20;;;;;;;5.83;5.33;;;;;;;-0.20;96.14;97473.97;4981511;28;20448;-68
2021/01/06 01:22:48;;;;;;;6.50;5.90;;;;;;;-0.27;97.13;97468.38;4980577;28;20205;-69
2021/01/06 01:25:21;;;;;;;5.77;5.37;;;;;;;-0.24;96.46;97468.16;4983337;28;20459;-68
2021/01/06 01:27:48;;;;;;;5.50;5.10;;;;;;;-0.22;96.79;97471.50;4982250;28;20233;-68
2021/01/06 01:30:18;;;;;;;8.67;7.87;;;;;;;-0.33;97.98;97467.03;4986876;28;20213;-68
2021/01/06 01:32:46;;;;;;;7.83;7.13;;;;;;;-0.18;97.04;97466.91;4982290;28;20980;-68
2021/01/06 01:35:15;;;;;;;9.80;8.80;;;;;;;-0.22;96.87;97465.44;4987461;28;20968;-68
2021/01/06 01:37:43;;;;;;;5.57;5.17;;;;;;;-0.10;96.51;97471.56;4981646;28;20441;-69
2021/01/06 01:40:12;;;;;;;5.60;5.10;;;;;;;-0.20;97.86;97460.94;4984310;28;20670;-69
2021/01/06 01:42:41;;;;;;;5.77;5.27;;;;;;;-0.17;96.22;97468.56;4974694;28;20448;-67
2021/01/06 01:45:08;;;;;;;6.40;5.80;;;;;;;-0.22;96.86;97460.22;4980806;28;20205;-69
2021/01/06 01:47:40;;;;;;;5.17;4.77;;;;;;;-0.15;96.61;97461.47;4979859;28;21266;-68
2021/01/06 01:50:07;;;;;;;6.53;5.40;;;;;;;-0.25;96.22;97463.91;4977105;28;20198;-69
2021/01/06 01:52:38;;;;;;;5.37;4.93;;;;;;;-0.23;96.06;97472.44;4991848;28;20448;-68
2021/01/06 01:55:07;;;;;;;5.27;4.87;;;;;;;-0.28;97.04;97464.13;4980773;28;20437;-68
2021/01/06 01:57:37;;;;;;;5.90;5.40;;;;;;;-0.39;96.83;97471.84;4983320;28;20797;-68
2021/01/06 02:00:09;;;;;;;5.10;4.70;;;;;;;-0.26;96.78;97469.19;4983763;28;20452;-68
2021/01/06 02:02:43;;;;;;;5.00;4.60;;;;;;;-0.24;96.29;97462.13;4986690;28;20912;-68
2021/01/06 02:05:13;;;;;;;5.73;5.20;;;;;;;-0.25;96.45;97457.84;4980604;28;20447;-68
2021/01/06 02:07:46;;;;;;;5.87;5.37;;;;;;;-0.30;96.67;97459.00;4988187;28;20512;-68
2021/01/06 02:10:19;;;;;;;5.03;4.70;;;;;;;-0.30;96.01;97461.63;4985983;28;20555;-69
2021/01/06 02:12:49;;;;;;;5.13;4.73;;;;;;;-0.35;96.57;97466.31;4983131;28;20212;-69
2021/01/06 02:15:23;;;;;;;5.10;4.63;;;;;;;-0.34;96.63;97456.75;4987355;28;20456;-68
2021/01/06 02:17:50;;;;;;;5.13;4.70;;;;;;;-0.48;97.39;97455.94;4985423;28;20482;-68
2021/01/06 02:20:19;;;;;;;5.03;4.63;;;;;;;-0.28;96.52;97466.72;4985498;28;20962;-68
2021/01/06 02:22:48;;;;;;;4.70;4.30;;;;;;;-0.27;96.14;97463.19;4987141;28;20202;-69
2021/01/06 02:25:16;;;;;;;5.93;5.43;;;;;;;-0.38;96.83;97453.50;4981364;28;20245;-68
2021/01/06 02:27:43;;;;;;;5.73;5.33;;;;;;;-0.38;96.84;97450.91;4983968;28;20226;-68
2021/01/06 02:30:12;;;;;;;4.73;4.37;;;;;;;-0.48;97.57;97449.91;4988967;28;20228;-68
2021/01/06 02:32:39;;;;;;;5.50;4.97;;;;;;;-0.53;98.51;97444.19;4987061;28;20675;-68
2021/01/06 02:35:07;;;;;;;5.23;4.77;;;;;;;-0.51;98.68;97437.09;4996064;28;20460;-68
2021/01/06 02:37:34;;;;;;;5.37;4.97;;;;;;;-0.45;97.87;97444.47;4985560;28;20461;-69
2021/01/06 02:40:03;;;;;;;5.03;4.53;;;;;;;-0.43;98.16;97445.19;4996528;28;20452;-69
2021/01/06 02:42:30;;;;;;;4.83;4.43;;;;;;;-0.48;97.78;97442.09;4987892;28;20574;-69
2021/01/06 02:44:58;;;;;;;4.90;4.50;;;;;;;-0.48;97.22;97445.50;4983240;28;21004;-68
2021/01/06 02:47:25;;;;;;;5.60;5.10;;;;;;;-0.40;97.74;97447.59;4993218;28;20482;-68
2021/01/06 02:49:52;;;;;;;5.00;4.60;;;;;;;-0.43;97.52;97450.41;4985668;28;20322;-68
2021/01/06 02:52:25;;;;;;;5.03;4.63;;;;;;;-0.46;97.34;97448.03;4991515;28;20914;-67
2021/01/06 02:54:53;;;;;;;5.20;4.80;;;;;;;-0.56;98.42;97449.63;4980285;28;20598;-69
2021/01/06 02:57:22;;;;;;;5.27;4.87;;;;;;;-0.37;97.32;97444.75;4973233;28;20206;-68
2021/01/06 02:59:49;;;;;;;5.17;4.70;;;;;;;-0.44;96.83;97446.97;4976058;28;20201;-69
2021/01/06 03:02:20;;;;;;;4.73;4.33;;;;;;;-0.47;96.81;97439.38;4987680;28;20205;-68
2021/01/06 03:04:49;;;;;;;5.53;5.03;;;;;;;-0.51;97.93;97434.50;4973468;28;20233;-68
2021/01/06 03:07:18;;;;;;;4.63;4.33;;;;;;;-0.48;97.31;97436.88;4968310;28;20234;-69
2021/01/06 03:09:45;;;;;;;5.90;5.40;;;;;;;-0.50;97.96;97433.56;4977970;28;20201;-68
2021/01/06 03:12:16;;;;;;;5.47;4.97;;;;;;;-0.51;97.51;97435.31;4975411;28;20592;-69
2021/01/06 03:14:44;;;;;;;5.33;4.93;;;;;;;-0.44;97.67;97431.34;4978202;28;20310;-68
2021/01/06 03:17:13;;;;;;;4.87;4.47;;;;;;;-0.49;97.89;97427.41;4984326;28;20248;-68
2021/01/06 03:19:44;;;;;;;5.30;4.90;;;;;;;-0.57;98.67;97430.56;4973071;28;20218;-67
2021/01/06 03:22:15;;;;;;;6.40;5.90;;;;;;;-0.60;99.05;97426.38;4977580;28;20445;-69
2021/01/06 03:24:45;;;;;;;4.97;4.57;;;;;;;-0.51;99.68;97424.09;4984031;28;20812;-68
2021/01/06 03:27:12;;;;;;;5.77;5.27;;;;;;;-0.52;99.47;97419.81;4976811;28;20481;-70
2021/01/06 03:29:40;;;;;;;5.33;4.83;;;;;;;-0.46;100.00;97417.59;4970313;28;20995;-68
2021/01/06 03:32:11;;;;;;;6.80;5.13;;;;;;;-0.44;100.00;97425.31;4981811;28;20461;-69
2021/01/06 03:34:42;;;;;;;5.23;4.83;;;;;;;-0.39;100.00;97417.16;4979422;28;20233;-68
2021/01/06 03:37:13;;;;;;;5.53;4.93;;;;;;;-0.52;100.00;97417.22;4980229;28;20682;-69
2021/01/06 03:39:44;;;;;;;4.60;4.30;;;;;;;-0.56;100.00;97418.38;4974886;28;20233;-68
2021/01/06 03:42:11;;;;;;;5.70;5.20;;;;;;;-0.49;100.00;97415.22;4976183;28;20205;-68
2021/01/06 03:44:41;;;;;;;4.83;4.43;;;;;;;-0.59;100.00;97414.22;4969531;28;21627;-69
2021/01/06 03:47:15;;;;;;;5.83;5.33;;;;;;;-0.73;100.00;97416.03;4977718;28;20249;-68
2021/01/06 03:49:48;;;;;;;4.83;4.43;;;;;;;-0.56;100.00;97414.00;4981129;28;20205;-68
2021/01/06 03:52:19;;;;;;;5.50;5.00;;;;;;;-0.73;100.00;97409.97;4975779;28;20555;-67
2021/01/06 03:54:55;;;;;;;5.23;4.83;;;;;;;-0.74;100.00;97411.75;4987083;28;20984;-68
2021/01/06 03:57:22;;;;;;;4.57;4.20;;;;;;;-0.65;100.00;97412.03;4975395;28;20903;-68
2021/01/06 03:59:50;;;;;;;4.30;3.97;;;;;;;-0.68;100.00;97407.88;4976673;28;20457;-68
2021/01/06 04:02:22;;;;;;;4.83;4.43;;;;;;;-0.70;100.00;97398.53;4982812;28;20841;-69
2021/01/06 04:04:50;;;;;;;4.43;4.17;;;;;;;-0.68;100.00;97400.06;4986551;28;20229;-68
2021/01/06 04:07:19;;;;;;;4.97;4.57;;;;;;;-0.84;100.00;97395.09;4988732;28;20491;-68
2021/01/06 04:09:49;;;;;;;5.27;4.87;;;;;;;-0.80;100.00;97393.13;4988807;28;20844;-68
2021/01/06 04:12:18;;;;;;;5.00;4.60;;;;;;;-0.77;100.00;97396.34;4980993;28;20453;-69
2021/01/06 04:14:46;;;;;;;5.63;5.07;;;;;;;-0.81;100.00;97394.88;4981656;28;20465;-69
2021/01/06 04:17:17;;;;;;;5.03;4.63;;;;;;;-0.93;100.00;97404.41;4991623;28;20443;-68
2021/01/06 04:19:48;;;;;;;4.93;4.50;;;;;;;-0.83;100.00;97401.16;4983224;28;20433;-69
2021/01/06 04:22:16;;;;;;;5.10;4.70;;;;;;;-0.87;100.00;97400.53;4983357;28;20483;-67
2021/01/06 04:24:43;;;;;;;5.20;4.80;;;;;;;-0.90;100.00;97403.34;4981651;28;20599;-68
2021/01/06 04:27:16;;;;;;;5.27;4.83;;;;;;;-0.82;100.00;97395.81;4982535;28;20225;-69
2021/01/06 04:29:43;;;;;;;5.27;4.83;;;;;;;-0.80;100.00;97393.13;4978229;28;20686;-69
2021/01/06 04:32:10;;;;;;;4.63;4.23;;;;;;;-0.72;100.00;97393.41;4981493;28;20953;-69
2021/01/06 04:34:37;;;;;;;5.60;5.10;;;;;;;-0.70;100.00;97394.13;4980456;28;20476;-69
2021/01/06 04:37:05;;;;;;;5.50;5.00;;;;;;;-0.79;100.00;97385.19;4979512;28;20441;-68
2021/01/06 04:39:32;;;;;;;4.37;4.07;;;;;;;-0.77;100.00;97391.13;4980818;28;20461;-69
2021/01/06 04:42:02;;;;;;;5.07;4.60;;;;;;;-0.78;100.00;97393.84;4987486;28;20440;-68
2021/01/06 04:44:41;;;;;;;5.03;4.63;;;;;;;-0.87;100.00;97392.72;4983827;28;20650;-68
2021/01/06 04:47:23;;;;;;;5.10;4.60;;;;;;;-0.83;100.00;97386.34;4981935;28;20480;-68
2021/01/06 04:50:00;;;;;;;5.23;4.73;;;;;;;-0.88;100.00;97386.69;4981524;28;20984;-69
2021/01/06 04:52:36;;;;;;;4.97;4.50;;;;;;;-0.77;100.00;97388.53;4979320;28;20843;-69
2021/01/06 04:55:16;;;;;;;4.20;3.83;;;;;;;-0.80;100.00;97382.72;4979756;28;20480;-69
2021/01/06 04:58:03;;;;;;;5.30;4.90;;;;;;;-0.71;100.00;97395.09;4982722;28;20526;-68
2021/01/06 05:00:37;;;;;;;4.87;4.43;;;;;;;-0.71;100.00;97389.06;4979933;28;20209;-69
2021/01/06 05:03:26;;;;;;;5.13;3.90;;;;;;;-0.67;100.00;97398.31;4982667;28;20471;-68
2021/01/06 05:06:18;;;;;;;4.73;4.27;;;;;;;-0.66;100.00;97392.97;4973070;28;20445;-68
2021/01/06 05:08:49;;;;;;;4.73;4.43;;;;;;;-0.71;100.00;97394.25;4983181;28;20220;-69
2021/01/06 05:11:22;;;;;;;4.27;3.97;;;;;;;-0.83;100.00;97388.16;4981176;28;20456;-68
2021/01/06 05:13:52;;;;;;;5.27;4.77;;;;;;;-0.85;100.00;97395.22;4982296;28;20468;-69
2021/01/06 05:16:23;;;;;;;4.57;4.27;;;;;;;-0.70;100.00;97398.53;4980600;28;20674;-69
2021/01/06 05:18:50;;;;;;;5.07;4.60;;;;;;;-0.75;100.00;97398.84;4974307;28;20452;-68
2021/01/06 05:21:20;;;;;;;5.17;4.67;;;;;;;-0.75;100.00;97398.84;4977635;28;20210;-68
2021/01/06 05:23:52;;;;;;;4.57;4.27;;;;;;;-0.85;100.00;97403.84;4985576;28;20495;-68
2021/01/06 05:26:19;;;;;;;4.57;4.17;;;;;;;-0.77;100.00;97409.34;4975956;28;20559;-68
2021/01/06 05:28:47;;;;;;;4.30;4.00;;;;;;;-0.66;100.00;97407.78;4979926;28;20489;-68
2021/01/06 05:31:15;;;;;;;4.20;3.90;;;;;;;-0.69;100.00;97406.22;4986519;28;20508;-68
2021/01/06 05:33:45;;;;;;;5.03;4.53;;;;;;;-0.68;100.00;97405.28;4990057;28;21352;-68
2021/01/06 05:36:16;;;;;;;5.30;4.80;;;;;;;-0.75;100.00;97404.91;4987695;28;20847;-69
2021/01/06 05:38:42;;;;;;;5.23;4.83;;;;;;;-0.81;100.00;97407.91;4982980;28;20800;-69
2021/01/06 05:41:10;;;;;;;4.83;4.43;;;;;;;-0.80;100.00;97408.75;4989432;28;20202;-69
2021/01/06 05:43:43;;;;;;;5.07;4.57;;;;;;;-0.77;100.00;97400.72;4983449;28;20465;-69
2021/01/06 05:46:18;;;;;;;4.83;4.43;;;;;;;-0.84;100.00;97402.09;4988125;28;20450;-68
2021/01/06 05:48:50;;;;;;;4.50;4.10;;;;;;;-0.88;100.00;97406.66;4985604;28;20404;-69
2021/01/06 05:51:21;;;;;;;4.60;4.27;;;;;;;-0.81;100.00;97405.28;4980496;28;20463;-68
2021/01/06 05:53:55;;;;;;;5.10;4.70;;;;;;;-0.84;100.00;97408.13;4981749;28;20547;-69
2021/01/06 05:56:39;;;;;;;4.53;4.23;;;;;;;-0.76;100.00;97405.84;4986523;28;20239;-69
2021/01/06 05:59:17;;;;;;;5.03;4.63;;;;;;;-0.77;100.00;97408.53;4983170;28;20452;-70
2021/01/06 06:01:47;;;;;;;4.83;4.43;;;;;;;-0.80;100.00;97413.94;4986346;28;20452;-69
2021/01/06 06:04:26;;;;;;;4.57;4.27;;;;;;;-0.75;100.00;97404.91;4985324;28;20425;-69
2021/01/06 06:07:27;;;;;;;4.80;4.40;;;;;;;-0.76;100.00;97398.03;4988525;28;20201;-69
2021/01/06 06:10:20;;;;;;;5.67;5.00;;;;;;;-0.74;100.00;97395.31;4904782;29;20452;-69
2021/01/06 06:12:58;;;;;;;5.43;5.03;;;;;;;-0.82;100.00;97395.81;4981354;28;20440;-68
2021/01/06 06:15:42;;;;;;;4.93;4.60;;;;;;;-0.82;100.00;97392.41;4993091;28;20479;-68
2021/01/06 06:18:49;;;;;;;5.40;4.90;;;;;;;-0.73;100.00;97397.81;4989880;28;20534;-68
2021/01/06 06:21:24;;;;;;;4.30;4.00;;;;;;;-0.76;100.00;97403.22;4981024;28;20464;-69
2021/01/06 06:24:13;;;;;;;4.47;4.17;;;;;;;-0.87;100.00;97405.72;4986013;28;20232;-69
2021/01/06 06:26:49;;;;;;;4.77;4.37;;;;;;;-0.76;100.00;97405.00;4991695;28;20733;-69
2021/01/06 06:29:21;;;;;;;4.40;4.10;;;;;;;-0.76;100.00;97405.00;4984139;28;20904;-69
2021/01/06 06:31:51;;;;;;;4.77;4.37;;;;;;;-0.79;100.00;97408.63;4986580;28;20464;-67
2021/01/06 06:34:26;;;;;;;5.30;4.90;;;;;;;-0.65;100.00;97406.84;4985831;28;20476;-67
2021/01/06 06:37:04;;;;;;;4.77;4.37;;;;;;;-0.68;100.00;97405.28;4986281;28;20779;-68
2021/01/06 06:39:34;;;;;;;5.00;4.60;;;;;;;-0.62;100.00;97407.44;4981551;28;20449;-65
2021/01/06 06:42:03;;;;;;;5.37;4.93;;;;;;;-0.69;100.00;97405.41;4986185;28;20961;-65
2021/01/06 06:44:33;;;;;;;4.57;4.27;;;;;;;-0.70;100.00;97406.34;4985203;28;20479;-65
2021/01/06 06:47:11;;;;;;;4.60;4.30;;;;;;;-0.70;100.00;97395.94;4984649;28;20459;-65
2021/01/06 06:49:53;;;;;;;5.10;4.73;;;;;;;-0.66;100.00;97399.97;4983451;28;21155;-65
2021/01/06 06:52:26;;;;;;;4.50;4.20;;;;;;;-0.65;100.00;97402.44;4983846;28;20471;-64
2021/01/06 06:54:58;;;;;;;5.00;4.60;;;;;;;-0.63;100.00;97404.97;4979743;28;20515;-64
2021/01/06 06:57:28;;;;;;;5.27;4.87;;;;;;;-0.68;100.00;97397.47;4985502;28;20221;-66
2021/01/06 07:00:09;;;;;;;6.13;5.53;;;;;;;-0.71;100.00;97405.50;4981595;28;20224;-65
2021/01/06 07:02:45;;;;;;;5.83;5.33;;;;;;;-0.66;100.00;97406.00;4981484;28;21000;-63
2021/01/06 07:05:22;;;;;;;6.20;5.60;;;;;;;-0.56;100.00;97410.56;4984627;28;20787;-65
2021/01/06 07:07:53;;;;;;;5.23;4.83;;;;;;;-0.61;100.00;97403.09;4984590;28;20224;-65
2021/01/06 07:10:23;;;;;;;5.30;4.90;;;;;;;-0.53;100.00;97402.53;4989515;28;20208;-64
2021/01/06 07:12:51;;;;;;;5.80;5.30;;;;;;;-0.62;100.00;97407.44;4981475;28;20629;-63
2021/01/06 07:15:27;;;;;;;5.20;4.80;;;;;;;-0.62;100.00;97409.22;4986295;28;20209;-66
2021/01/06 07:17:54;;;;;;;6.00;5.40;;;;;;;-0.68;100.00;97401.84;4985179;28;20509;-64
2021/01/06 07:20:36;;;;;;;6.10;5.60;;;;;;;-0.78;100.00;97399.06;4988019;28;20464;-64
2021/01/06 07:23:13;;;;;;;5.33;4.93;;;;;;;-0.65;100.00;97412.88;4981566;28;20488;-64
2021/01/06 07:25:42;;;;;;;5.50;5.10;;;;;;;-0.53;100.00;97413.78;4986945;28;20443;-64
2021/01/06 07:28:14;;;;;;;5.80;5.33;;;;;;;-0.42;100.00;97412.19;4984162;28;20491;-66
2021/01/06 07:30:45;;;;;;;14.03;12.93;;;;;;;-0.59;100.00;97411.59;4983400;28;20228;-65
2021/01/06 07:33:22;;;;;;;9.37;8.57;;;;;;;-0.56;100.00;97416.59;4984702;28;20235;-65
2021/01/06 07:35:49;;;;;;;18.20;16.73;;;;;;;-0.59;100.00;97416.81;4984380;28;20201;-66
2021/01/06 07:38:17;;;;;;;6.53;6.03;;;;;;;-0.60;100.00;97415.16;4989701;28;20845;-68
2021/01/06 07:40:46;;;;;;;9.23;8.50;;;;;;;-0.53;100.00;97410.34;4983910;28;20600;-68
2021/01/06 07:43:22;;;;;;;13.67;12.63;;;;;;;-0.61;100.00;97419.50;4987316;28;20464;-67
2021/01/06 07:46:05;;;;;;;6.83;6.33;;;;;;;-0.65;100.00;97422.47;4979923;28;20447;-68
2021/01/06 07:49:05;;;;;;;7.03;6.47;;;;;;;-0.55;100.00;97427.84;4980894;28;20755;-67
2021/01/06 07:51:38;;;;;;;5.87;5.37;;;;;;;-0.67;100.00;97427.75;4980675;28;20896;-68
2021/01/06 07:54:14;;;;;;;6.43;5.93;;;;;;;-0.55;100.00;97427.84;4981363;28;20588;-68
2021/01/06 07:56:46;;;;;;;6.47;5.97;;;;;;;-0.53;100.00;97434.59;4985660;28;20470;-68
2021/01/06 07:59:23;;;;;;;7.27;6.67;;;;;;;-0.61;100.00;97434.31;4982132;28;20232;-68
2021/01/06 08:01:55;;;;;;;8.37;7.73;;;;;;;-0.70;100.00;97435.78;4983670;28;21132;-70
2021/01/06 08:04:30;;;;;;;10.13;9.33;;;;;;;-0.62;100.00;97438.66;4981464;28;20472;-68
2021/01/06 08:06:59;;;;;;;15.20;14.07;;;;;;;-0.55;100.00;97431.28;4984210;28;20448;-69
2021/01/06 08:09:33;;;;;;;8.87;8.17;;;;;;;-0.59;100.00;97430.66;4974907;28;20466;-67
2021/01/06 08:12:02;;;;;;;10.37;9.47;;;;;;;-0.54;100.00;97437.31;4979041;28;20527;-68
2021/01/06 08:14:32;;;;;;;12.93;11.93;;;;;;;-0.56;100.00;97440.03;4977174;28;20587;-69
2021/01/06 08:17:04;;;;;;;10.60;9.70;;;;;;;-0.57;100.00;97442.72;4979220;28;20457;-68
2021/01/06 08:19:36;;;;;;;9.50;8.77;;;;;;;-0.53;100.00;97441.59;4980134;28;20288;-67
2021/01/06 08:22:13;;;;;;;7.00;6.40;;;;;;;-0.41;100.00;97443.31;4982308;28;20755;-67
2021/01/06 08:24:44;;;;;;;8.10;7.40;;;;;;;-0.48;100.00;97444.69;4985773;28;20756;-67
2021/01/06 08:27:15;;;;;;;17.80;16.20;;;;;;;-0.41;100.00;97440.72;4981559;28;20452;-68
2021/01/06 08:29:42;;;;;;;16.47;15.07;;;;;;;-0.39;100.00;97440.59;4983278;28;20699;-68
2021/01/06 08:32:23;;;;;;;7.07;6.43;;;;;;;-0.36;100.00;97446.44;4985039;28;20444;-67
2021/01/06 08:34:56;;;;;;;22.80;20.73;;;;;;;-0.29;100.00;97433.81;4985257;28;20298;-67
2021/01/06 08:37:29;;;;;;;7.07;6.57;;;;;;;-0.33;100.00;97437.56;4983814;28;20663;-67
2021/01/06 08:39:58;;;;;;;22.37;20.30;;;;;;;-0.31;100.00;97440.91;4981294;28;21080;-68
2021/01/06 08:42:27;;;;;;;13.83;12.53;;;;;;;-0.39;100.00;97436.22;4984885;28;20202;-68
2021/01/06 08:44:57;;;;;;;11.90;10.77;;;;;;;-0.28;100.00;97440.69;4981039;28;20225;-69
2021/01/06 08:47:31;;;;;;;10.97;9.93;;;;;;;-0.25;100.00;97434.41;4979962;28;20213;-69
2021/01/06 08:50:21;;;;;;;8.57;7.87;;;;;;;-0.35;100.00;97440.28;4985016;28;20235;-69
2021/01/06 08:52:50;;;;;;;7.70;7.00;;;;;;;-0.26;100.00;97432.75;4979896;28;20210;-69
2021/01/06 08:55:21;;;;;;;14.60;13.37;;;;;;;-0.28;100.00;97430.28;4981561;28;20456;-68
2021/01/06 08:57:58;;;;;;;19.73;18.23;;;;;;;-0.33;100.00;97441.00;4985725;28;20193;-68
2021/01/06 09:00:29;;;;;;;20.20;18.70;;;;;;;-0.35;100.00;97434.25;4982942;28;20845;-70
2021/01/06 09:02:59;;;;;;;8.03;7.43;;;;;;;-0.29;100.00;97441.63;4981613;28;20213;-68
2021/01/06 09:05:44;;;;;;;7.93;7.33;;;;;;;-0.25;100.00;97439.63;4985062;28;20215;-67
2021/01/06 09:08:14;;;;;;;7.37;6.67;;;;;;;-0.17;100.00;97437.31;4985229;28;20467;-68
2021/01/06 09:10:47;;;;;;;8.23;7.43;;;;;;;-0.04;100.00;97443.31;4987622;28;20440;-66
2021/01/06 09:13:16;;;;;;;8.87;7.90;;;;;;;0.02;100.00;97446.41;4988335;28;20247;-66
2021/01/06 09:15:48;;;;;;;7.73;7.13;;;;;;;-0.16;100.00;97441.59;4982150;28;20788;-66
2021/01/06 09:18:20;;;;;;;8.73;8.03;;;;;;;-0.24;100.00;97446.50;4984658;28;20209;-68
2021/01/06 09:21:11;;;;;;;8.47;7.67;;;;;;;-0.30;100.00;97448.59;4988677;28;20448;-69
2021/01/06 09:23:39;;;;;;;8.00;7.30;;;;;;;-0.30;100.00;97459.00;4978861;28;21137;-67
2021/01/06 09:26:06;;;;;;;8.03;7.33;;;;;;;-0.31;100.00;97462.56;4984098;28;20849;-67
2021/01/06 09:28:37;;;;;;;7.83;7.23;;;;;;;-0.26;100.00;97458.78;4984489;28;20229;-68
2021/01/06 09:31:06;;;;;;;9.93;9.03;;;;;;;-0.22;100.00;97466.28;4988391;28;20836;-69
2021/01/06 09:33:37;;;;;;;9.43;8.70;;;;;;;-0.22;100.00;97460.22;4985365;28;21016;-68
2021/01/06 09:36:05;;;;;;;8.63;7.90;;;;;;;-0.14;100.00;97468.34;4983624;28;20841;-68
2021/01/06 09:38:34;;;;;;;7.60;6.87;;;;;;;-0.15;100.00;97464.09;4983927;28;20205;-67
2021/01/06 09:41:08;;;;;;;7.67;7.07;;;;;;;-0.11;100.00;97456.88;4986377;28;20696;-68
2021/01/06 09:43:40;;;;;;;8.10;7.33;;;;;;;-0.13;100.00;97461.34;4987031;28;20463;-68
2021/01/06 09:46:18;;;;;;;7.93;7.13;;;;;;;0.00;100.00;97459.56;4984516;28;20448;-68
2021/01/06 09:48:54;;;;;;;8.27;7.47;;;;;;;0.03;100.00;97461.94;4982881;28;20515;-69
2021/01/06 09:51:21;;;;;;;9.10;8.33;;;;;;;0.20;100.00;97473.75;4984660;28;20206;-67
2021/01/06 09:53:52;;;;;;;8.40;7.70;;;;;;;0.36;100.00;97467.41;4977427;28;20480;-68
2021/01/06 09:56:20;;;;;;;8.93;8.10;;;;;;;0.22;100.00;97463.19;4981788;28;20209;-69
2021/01/06 09:58:47;;;;;;;9.50;8.53;;;;;;;0.12;100.00;97466.47;4987571;28;20216;-68
2021/01/06 10:01:25;;;;;;;9.03;8.13;;;;;;;0.19;100.00;97464.25;4986817;28;20213;-70
2021/01/06 10:03:55;;;;;;;9.33;8.47;;;;;;;0.16;100.00;97468.84;4988642;28;20787;-70
2021/01/06 10:06:36;;;;;;;8.60;7.80;;;;;;;0.05;100.00;97462.66;4987044;28;20506;-68
2021/01/06 10:09:08;;;;;;;8.33;7.57;;;;;;;-0.07;100.00;97461.75;4986366;28;20217;-68
2021/01/06 10:12:05;;;;;;;8.90;8.10;;;;;;;0.14;100.00;97454.16;4987521;28;20604;-70
2021/01/06 10:14:41;;;;;;;9.43;8.57;;;;;;;-0.03;100.00;97458.00;4974081;28;20230;-68
2021/01/06 10:17:14;;;;;;;8.87;7.97;;;;;;;-0.12;100.00;97460.41;4986431;28;20205;-69
2021/01/06 10:19:51;;;;;;;10.63;9.50;;;;;;;-0.21;100.00;97454.09;4987829;28;20848;-68
2021/01/06 10:22:30;;;;;;;11.13;8.90;;;;;;;-0.18;100.00;97457.31;4983062;28;20739;-67
2021/01/06 10:25:17;;;;;;;8.93;8.13;;;;;;;-0.26;100.00;97459.63;4984170;28;20673;-69
2021/01/06 10:27:56;;;;;;;9.53;8.53;;;;;;;-0.34;100.00;97461.97;4985642;28;20584;-70
2021/01/06 10:30:24;;;;;;;9.60;8.47;;;;;;;-0.32;100.00;97457.47;4985636;28;20217;-70
2021/01/06 10:32:52;;;;;;;9.43;8.63;;;;;;;-0.35;100.00;97450.69;4985369;28;20208;-69
2021/01/06 10:35:33;;;;;;;10.93;9.83;;;;;;;-0.43;100.00;97450.41;4961687;28;20214;-71
2021/01/06 10:38:14;;;;;;;10.53;9.43;;;;;;;-0.38;100.00;97445.72;4989257;28;20696;-71
2021/01/06 10:40:44;;;;;;;11.33;9.60;;;;;;;-0.35;100.00;97448.09;4991767;28;20445;-71
2021/01/06 10:43:45;;;;;;;11.07;10.07;;;;;;;-0.45;100.00;97449.69;4985894;28;20741;-69
2021/01/06 10:46:38;;;;;;;10.47;9.47;;;;;;;-0.45;100.00;97449.69;4894593;29;20467;-70
2021/01/06 10:49:07;;;;;;;10.97;9.87;;;;;;;-0.49;100.00;97443.84;4908715;29;20523;-69
2021/01/06 10:52:30;;;;;;;10.80;9.77;;;;;;;-0.41;100.00;97437.28;4961528;28;20585;-70
2021/01/06 10:55:11;;;;;;;10.37;9.40;;;;;;;-0.46;100.00;97437.63;4944708;28;20236;-71
2021/01/06 10:57:41;;;;;;;10.73;9.83;;;;;;;-0.51;100.00;97435.31;4981081;28;20209;-70
2021/01/06 11:00:12;;;;;;;10.57;9.03;;;;;;;-0.51;100.00;97435.31;4979885;28;20499;-71
2021/01/06 11:03:06;;;;;;;10.63;9.53;;;;;;;-0.54;100.00;97430.34;4979314;28;20209;-71
2021/01/06 11:05:36;;;;;;;10.83;9.77;;;;;;;-0.45;100.00;97431.47;4972275;28;20296;-71
2021/01/06 11:08:41;;;;;;;10.23;9.13;;;;;;;-0.44;100.00;97435.72;4985023;28;20493;-72
2021/01/06 11:11:19;;;;;;;12.20;10.90;;;;;;;-0.59;100.00;97429.81;4957197;28;20441;-71
2021/01/06 11:14:03;;;;;;;11.67;10.53;;;;;;;-0.63;100.00;97433.59;4981891;28;20476;-72
2021/01/06 11:16:37;;;;;;;12.67;11.27;;;;;;;-0.60;100.00;97425.56;4982984;28;21152;-71
2021/01/06 11:19:04;;;;;;;10.90;9.80;;;;;;;-0.34;100.00;97430.72;4981791;28;20467;-71
2021/01/06 11:21:39;;;;;;;11.30;10.10;;;;;;;-0.30;100.00;97426.94;4981889;28;20209;-71
2021/01/06 11:24:32;;;;;;;25.63;23.40;;;;;;;-0.33;100.00;97427.16;4980837;28;20336;-70
2021/01/06 11:27:01;;;;;;;14.67;13.37;;;;;;;-0.26;100.00;97425.78;4987172;28;20225;-72
2021/01/06 11:29:54;;;;;;;10.67;9.27;;;;;;;-0.24;100.00;97423.06;4985316;28;20499;-71
2021/01/06 11:32:36;;;;;;;10.77;9.80;;;;;;;-0.13;100.00;97427.50;4979397;28;20458;-71
2021/01/06 11:35:13;;;;;;;11.90;10.77;;;;;;;-0.22;100.00;97419.41;4980024;28;20294;-71
2021/01/06 11:37:42;;;;;;;11.23;10.13;;;;;;;-0.20;100.00;97420.13;4981759;28;20221;-71
2021/01/06 11:40:28;;;;;;;11.07;10.10;;;;;;;-0.19;100.00;97424.38;4983706;28;20772;-71
2021/01/06 11:43:06;;;;;;;11.00;10.00;;;;;;;-0.30;100.00;97421.72;4985742;28;20310;-71
2021/01/06 11:45:45;;;;;;;11.57;10.10;;;;;;;-0.24;100.00;97415.22;4976289;28;20984;-71
2021/01/06 11:48:26;;;;;;;11.80;9.93;;;;;;;-0.27;100.00;97415.47;4982735;28;20483;-72
2021/01/06 11:50:53;;;;;;;11.17;10.10;;;;;;;-0.23;100.00;97409.09;4978912;28;20544;-71
2021/01/06 11:53:24;;;;;;;13.87;11.00;;;;;;;-0.19;100.00;97408.75;4981365;28;20252;-70